Time;durP1;ratioP1;P1;durP2;ratioP2;P2;SDS_P1;SDS_P2;PMS_P1;PMS_P2;Temp;Humidity;BMP_temperature;BMP_pressure;BME280_temperature;BME280_humidity;BME280_pressure;Samples;Min_cycle;Max_cycle;Signal;HPM_P1;HPM_P2
2021/04/07 00:02:12;;;;;;;9.18;7.13;;;77.60;2227.20;;;;;;5061703;28;20035;-57
2021/04/07 00:04:38;;;;;;;9.73;6.05;;;102.40;2227.20;;;;;;5063094;28;20520;-58
2021/04/07 00:07:04;;;;;;;32.47;27.45;;;77.40;2227.20;;;;;;5062166;28;20036;-58
2021/04/07 00:09:30;;;;;;;13.82;8.10;;;77.60;2227.20;;;;;;5061542;28;20489;-59
2021/04/07 00:11:56;;;;;;;14.63;9.38;;;77.50;2227.20;;;;;;5063334;28;20989;-58
2021/04/07 00:14:22;;;;;;;39.08;20.40;;;77.20;2227.20;;;;;;5072540;28;20060;-57
2021/04/07 00:16:48;;;;;;;28.35;14.88;;;77.20;2227.20;;;;;;5072403;28;20024;-60
2021/04/07 00:19:15;;;;;;;19.38;12.82;;;77.10;2227.20;;;;;;5071474;28;20039;-59
2021/04/07 00:21:41;;;;;;;17.08;10.75;;;77.20;2227.20;;;;;;5072492;28;20013;-59
2021/04/07 00:24:07;;;;;;;22.13;10.88;;;76.90;2227.20;;;;;;5072427;28;20112;-60
2021/04/07 00:26:36;;;;;;;23.90;15.75;;;77.00;2227.20;;;;;;5072555;28;20043;-59
2021/04/07 00:29:03;;;;;;;27.35;17.77;;;77.00;2227.20;;;;;;5072356;28;20020;-58
2021/04/07 00:31:29;;;;;;;8.95;6.25;;;77.00;2227.20;;;;;;5071986;28;20048;-58
2021/04/07 00:33:54;;;;;;;9.73;6.45;;;76.80;2227.20;;;;;;5072245;28;20502;-61
2021/04/07 00:36:20;;;;;;;9.43;6.30;;;76.90;2227.20;;;;;;5072126;28;20050;-59
2021/04/07 00:38:46;;;;;;;24.17;13.23;;;77.00;2227.20;;;;;;5065256;28;20044;-61
2021/04/07 00:41:11;;;;;;;10.82;6.60;;;77.10;2227.20;;;;;;5060010;28;20049;-59
2021/04/07 00:43:37;;;;;;;27.92;17.13;;;76.80;2227.20;;;;;;5051466;28;20108;-59
2021/04/07 00:46:03;;;;;;;52.35;27.77;;;76.80;2227.20;;;;;;5052103;28;20029;-61
2021/04/07 00:48:30;;;;;;;97.32;48.13;;;76.80;2227.20;;;;;;5053720;28;20489;-62
2021/04/07 00:50:55;;;;;;;9.77;5.85;;;77.00;2227.20;;;;;;5060636;28;20033;-58
2021/04/07 00:53:21;;;;;;;13.20;8.23;;;76.90;2227.20;;;;;;5051972;28;20051;-59
2021/04/07 00:55:47;;;;;;;32.83;17.50;;;52.10;2227.20;;;;;;5051637;28;20033;-57
2021/04/07 00:58:15;;;;;;;8.68;5.85;;;77.00;2227.20;;;;;;5051828;28;20029;-60
2021/04/07 01:00:41;;;;;;;8.90;6.47;;;76.80;2227.20;;;;;;5051592;28;20368;-58
2021/04/07 01:03:07;;;;;;;9.27;6.38;;;77.00;2227.20;;;;;;5051568;28;20530;-60
2021/04/07 01:05:33;;;;;;;16.67;9.95;;;77.10;2227.20;;;;;;5051337;28;20128;-59
2021/04/07 01:08:00;;;;;;;13.23;9.25;;;77.20;2227.20;;;;;;5051453;28;20471;-60
2021/04/07 01:10:26;;;;;;;11.07;7.80;;;77.30;2227.20;;;;;;5051580;28;20025;-61
2021/04/07 01:12:53;;;;;;;7.40;4.85;;;77.40;2227.20;;;;;;5051477;28;20025;-58
2021/04/07 01:15:19;;;;;;;22.92;15.02;;;77.20;2227.20;;;;;;5051222;28;20033;-57
2021/04/07 01:17:45;;;;;;;25.40;14.90;;;77.10;2227.20;;;;;;5051512;28;20025;-60
2021/04/07 01:20:14;;;;;;;15.85;9.50;;;77.20;2227.20;;;;;;5051177;28;20029;-58
2021/04/07 01:22:41;;;;;;;21.10;13.32;;;77.20;2227.20;;;;;;5051295;28;20037;-59
2021/04/07 01:25:08;;;;;;;25.23;15.55;;;77.20;2227.20;;;;;;5051077;28;20043;-59
2021/04/07 01:27:35;;;;;;;8.57;5.18;;;77.10;2227.20;;;;;;5051383;28;20051;-61
2021/04/07 01:30:03;;;;;;;20.08;12.93;;;77.20;2227.20;;;;;;5057407;28;20473;-61
2021/04/07 01:32:29;;;;;;;44.10;27.10;;;77.00;2227.20;;;;;;5070927;28;20060;-60
2021/04/07 01:34:55;;;;;;;16.30;9.43;;;77.00;2227.20;;;;;;5071121;28;20476;-58
2021/04/07 01:37:20;;;;;;;36.22;17.05;;;77.20;2227.20;;;;;;5071190;28;20025;-59
2021/04/07 01:39:46;;;;;;;15.88;9.45;;;77.20;2227.20;;;;;;5071012;28;20029;-60
2021/04/07 01:42:12;;;;;;;36.72;19.58;;;77.20;2227.20;;;;;;5071009;28;20056;-59
2021/04/07 01:44:39;;;;;;;19.80;12.45;;;77.30;2227.20;;;;;;5070420;28;20060;-60
2021/04/07 01:47:07;;;;;;;34.72;19.13;;;77.30;2227.20;;;;;;5070877;28;20787;-60
2021/04/07 01:49:33;;;;;;;24.73;14.15;;;77.30;2227.20;;;;;;5070831;28;20455;-59
2021/04/07 01:52:00;;;;;;;12.55;6.93;;;77.30;2227.20;;;;;;5070715;28;20031;-58
2021/04/07 01:54:26;;;;;;;16.67;10.05;;;77.20;2227.20;;;;;;5063153;28;20060;-59
2021/04/07 01:56:56;;;;;;;14.27;10.10;;;77.20;2227.20;;;;;;5056826;28;20037;-58
2021/04/07 01:59:30;;;;;;;9.98;7.82;;;77.30;2227.20;;;;;;5050820;28;20033;-59
2021/04/07 02:01:57;;;;;;;14.02;7.57;;;77.40;2227.20;;;;;;5050440;28;20041;-58
2021/04/07 02:04:24;;;;;;;21.63;11.38;;;77.40;2227.20;;;;;;5050463;28;20053;-58
2021/04/07 02:06:50;;;;;;;19.30;11.73;;;77.40;2227.20;;;;;;5050419;28;20082;-59
2021/04/07 02:09:17;;;;;;;12.02;7.20;;;77.40;2227.20;;;;;;5050429;28;20033;-58
2021/04/07 02:11:53;;;;;;;11.57;6.50;;;77.40;2227.20;;;;;;5050638;28;20108;-58
2021/04/07 02:14:21;;;;;;;13.77;6.93;;;77.40;2227.20;;;;;;5050188;28;20048;-58
2021/04/07 02:16:54;;;;;;;13.98;6.70;;;77.50;2227.20;;;;;;5049937;28;20028;-58
2021/04/07 02:19:24;;;;;;;14.30;7.47;;;77.50;2227.20;;;;;;5050134;28;20033;-58
2021/04/07 02:22:01;;;;;;;107.53;82.60;;;77.50;2227.20;;;;;;5050120;28;20079;-60
2021/04/07 02:24:27;;;;;;;13.88;8.52;;;77.60;2227.20;;;;;;5048781;28;20055;-57
2021/04/07 02:26:53;;;;;;;12.30;10.70;;;77.60;2227.20;;;;;;5050272;28;20029;-57
2021/04/07 02:29:19;;;;;;;20.92;12.55;;;77.70;2227.20;;;;;;5050071;28;20028;-60
2021/04/07 02:31:45;;;;;;;9.13;6.82;;;77.70;2227.20;;;;;;5050429;28;20017;-58
2021/04/07 02:34:11;;;;;;;13.45;7.68;;;102.40;2227.20;;;;;;5050322;28;20048;-60
2021/04/07 02:36:37;;;;;;;11.60;7.18;;;77.70;2227.20;;;;;;5050019;28;20087;-59
2021/04/07 02:39:04;;;;;;;8.93;6.95;;;102.40;2227.20;;;;;;5050024;28;20029;-58
2021/04/07 02:41:30;;;;;;;7.88;4.97;;;77.70;2227.20;;;;;;5049900;28;20494;-59
2021/04/07 02:43:56;;;;;;;9.98;7.07;;;77.70;2227.20;;;;;;5049608;28;20033;-62
2021/04/07 02:46:22;;;;;;;7.97;5.70;;;77.70;2227.20;;;;;;5050146;28;20490;-58
2021/04/07 02:48:48;;;;;;;9.02;6.20;;;102.40;2227.20;;;;;;5049891;28;20375;-59
2021/04/07 02:51:14;;;;;;;144.50;99.00;;;77.70;2227.20;;;;;;5050003;28;20079;-58
2021/04/07 02:53:40;;;;;;;13.50;9.43;;;102.40;2227.20;;;;;;5049839;28;20021;-58
2021/04/07 02:56:06;;;;;;;9.50;6.30;;;77.70;2227.20;;;;;;5049696;28;20351;-60
2021/04/07 02:58:31;;;;;;;9.48;6.30;;;77.70;2227.20;;;;;;5050119;28;20021;-59
2021/04/07 03:00:57;;;;;;;9.45;5.70;;;77.70;2227.20;;;;;;5049937;28;20471;-58
2021/04/07 03:03:23;;;;;;;7.43;4.72;;;77.70;2227.20;;;;;;5049983;28;20071;-61
2021/04/07 03:05:48;;;;;;;8.65;5.43;;;77.70;2227.20;;;;;;5050499;28;20123;-59
2021/04/07 03:08:14;;;;;;;10.07;6.90;;;77.50;2227.20;;;;;;5054040;28;20028;-58
2021/04/07 03:10:40;;;;;;;10.98;6.50;;;77.60;2227.20;;;;;;5053695;28;20028;-58
2021/04/07 03:13:06;;;;;;;8.45;6.18;;;77.40;2227.20;;;;;;5053543;28;20025;-60
2021/04/07 03:15:31;;;;;;;10.70;5.88;;;77.20;2227.20;;;;;;5053565;28;20029;-60
2021/04/07 03:17:57;;;;;;;10.70;6.47;;;77.20;2227.20;;;;;;5053463;28;20037;-60
2021/04/07 03:20:23;;;;;;;9.68;6.22;;;77.20;2227.20;;;;;;5053879;28;20017;-60
2021/04/07 03:22:49;;;;;;;7.47;5.20;;;77.20;2227.20;;;;;;5053482;28;20104;-59
2021/04/07 03:25:14;;;;;;;12.05;6.07;;;77.20;2227.20;;;;;;5054493;28;20471;-59
2021/04/07 03:27:40;;;;;;;7.85;4.97;;;77.20;2227.20;;;;;;5067645;28;20021;-58
2021/04/07 03:30:07;;;;;;;8.40;5.55;;;77.20;2227.20;;;;;;5073208;28;20020;-59
2021/04/07 03:32:33;;;;;;;8.88;5.85;;;77.20;2227.20;;;;;;5073276;28;20050;-59
2021/04/07 03:34:59;;;;;;;8.10;5.13;;;76.90;2227.20;;;;;;5070650;28;20029;-61
2021/04/07 03:37:24;;;;;;;6.93;4.03;;;77.00;2227.20;;;;;;5053441;28;20074;-58
2021/04/07 03:39:51;;;;;;;8.45;5.10;;;76.80;2227.20;;;;;;5053300;28;20032;-61
2021/04/07 03:42:17;;;;;;;7.60;5.20;;;76.80;2227.20;;;;;;5053117;28;20021;-62
2021/04/07 03:44:42;;;;;;;7.53;4.82;;;52.10;2227.20;;;;;;5052815;28;20049;-60
2021/04/07 03:47:09;;;;;;;9.13;4.65;;;52.10;2227.20;;;;;;5053232;28;20088;-59
2021/04/07 03:49:34;;;;;;;8.45;4.70;;;51.90;2227.20;;;;;;5053188;28;20028;-59
2021/04/07 03:52:00;;;;;;;7.45;4.63;;;76.80;2227.20;;;;;;5052968;28;20028;-59
2021/04/07 03:54:26;;;;;;;9.57;5.72;;;76.80;2227.20;;;;;;5053082;28;20028;-60
2021/04/07 03:56:52;;;;;;;7.72;5.40;;;76.80;2227.20;;;;;;5053154;28;20025;-60
2021/04/07 03:59:18;;;;;;;9.77;5.20;;;77.00;2227.20;;;;;;5052736;28;20025;-58
2021/04/07 04:01:44;;;;;;;7.75;5.82;;;76.90;2227.20;;;;;;5052977;28;20029;-62
2021/04/07 04:04:10;;;;;;;9.80;5.05;;;76.90;2227.20;;;;;;5052781;28;20087;-57
2021/04/07 04:06:36;;;;;;;13.50;9.77;;;77.00;2227.20;;;;;;5052705;28;20036;-59
2021/04/07 04:09:03;;;;;;;9.05;5.43;;;77.10;2227.20;;;;;;5052853;28;20063;-60
2021/04/07 04:11:29;;;;;;;7.35;6.55;;;77.10;2227.20;;;;;;5052654;28;20025;-58
2021/04/07 04:13:55;;;;;;;10.82;8.93;;;77.00;2227.20;;;;;;5052587;28;20519;-61
2021/04/07 04:16:21;;;;;;;7.50;4.22;;;77.00;2227.20;;;;;;5052097;28;20532;-58
2021/04/07 04:18:48;;;;;;;6.60;5.32;;;77.00;2227.20;;;;;;5052350;28;20017;-58
2021/04/07 04:21:14;;;;;;;6.53;4.47;;;77.00;2227.20;;;;;;5052676;28;20029;-60
2021/04/07 04:23:39;;;;;;;7.45;5.20;;;77.10;2227.20;;;;;;5052354;28;20429;-59
2021/04/07 04:26:05;;;;;;;9.50;5.90;;;77.10;2227.20;;;;;;5052226;28;20037;-58
2021/04/07 04:28:31;;;;;;;12.02;8.18;;;77.00;2227.20;;;;;;5052341;28;20087;-62
2021/04/07 04:30:56;;;;;;;13.57;7.72;;;77.00;2227.20;;;;;;5052121;28;20064;-60
2021/04/07 04:33:22;;;;;;;10.93;9.38;;;77.10;2227.20;;;;;;5052191;28;20108;-57
2021/04/07 04:35:48;;;;;;;12.98;7.88;;;77.20;2227.20;;;;;;5052070;28;20025;-58
2021/04/07 04:38:16;;;;;;;14.50;9.52;;;77.30;2227.20;;;;;;5052198;28;20521;-60
2021/04/07 04:40:42;;;;;;;14.10;7.90;;;77.30;2227.20;;;;;;5052261;28;20033;-59
2021/04/07 04:43:08;;;;;;;10.55;6.28;;;77.30;2227.20;;;;;;5051979;28;20463;-59
2021/04/07 04:45:35;;;;;;;14.77;9.57;;;77.30;2227.20;;;;;;5062634;28;20147;-58
2021/04/07 04:48:00;;;;;;;14.27;9.40;;;77.30;2227.20;;;;;;5051674;28;20025;-57
2021/04/07 04:50:26;;;;;;;20.08;12.02;;;77.20;2227.20;;;;;;5051791;28;20423;-59
2021/04/07 04:52:52;;;;;;;16.05;12.27;;;77.30;2227.20;;;;;;5051902;28;20076;-59
2021/04/07 04:55:17;;;;;;;16.92;9.45;;;77.20;2227.20;;;;;;5051913;28;20033;-59
2021/04/07 04:57:43;;;;;;;18.70;10.48;;;77.40;2227.20;;;;;;5051865;28;20025;-61
2021/04/07 05:00:09;;;;;;;14.48;8.43;;;77.40;2227.20;;;;;;5051751;28;20033;-59
2021/04/07 05:02:35;;;;;;;15.13;10.73;;;77.60;2227.20;;;;;;5050337;28;20033;-61
2021/04/07 05:05:01;;;;;;;12.38;10.95;;;77.70;2227.20;;;;;;5051441;28;20048;-59
2021/04/07 05:07:27;;;;;;;11.48;7.68;;;102.40;2227.20;;;;;;5051482;28;20025;-58
2021/04/07 05:09:52;;;;;;;14.23;8.70;;;102.50;2227.20;;;;;;5051590;28;20112;-59
2021/04/07 05:12:19;;;;;;;13.43;7.60;;;102.60;2227.20;;;;;;5051521;28;20036;-59
2021/04/07 05:14:47;;;;;;;14.43;7.97;;;102.50;2227.20;;;;;;5051396;28;20033;-59
2021/04/07 05:17:13;;;;;;;12.43;7.57;;;102.70;2201.60;;;;;;5051378;28;20040;-57
2021/04/07 05:19:38;;;;;;;15.85;9.65;;;102.60;2227.20;;;;;;5055690;28;20020;-61
2021/04/07 05:22:04;;;;;;;18.63;12.50;;;102.80;2176.00;;;;;;5079904;28;20024;-60
2021/04/07 05:24:30;;;;;;;17.02;10.98;;;103.00;2150.40;;;;;;5080696;28;20108;-60
2021/04/07 05:26:56;;;;;;;21.60;11.55;;;103.10;2124.80;;;;;;5078907;28;20013;-61
2021/04/07 05:29:22;;;;;;;11.85;8.52;;;103.30;2099.20;;;;;;5079562;28;20095;-59
2021/04/07 05:31:48;;;;;;;21.40;13.02;;;128.20;2073.60;;;;;;5080265;28;20519;-60
2021/04/07 05:34:14;;;;;;;14.32;9.00;;;128.40;2048.00;;;;;;5078642;28;20031;-58
2021/04/07 05:36:39;;;;;;;13.95;9.25;;;128.60;2048.00;;;;;;5080321;28;20044;-61
2021/04/07 05:39:05;;;;;;;12.40;8.75;;;128.70;1996.80;;;;;;5079529;28;20070;-60
2021/04/07 05:41:31;;;;;;;12.18;8.52;;;128.90;1996.80;;;;;;5078964;28;20027;-59
2021/04/07 05:43:58;;;;;;;15.00;8.48;;;153.60;1996.80;;;;;;5080364;28;20118;-62
2021/04/07 05:46:24;;;;;;;13.35;8.88;;;153.70;1971.20;;;;;;5079551;28;20070;-59
2021/04/07 05:48:49;;;;;;;12.93;8.27;;;153.70;1971.20;;;;;;5078758;28;20061;-61
2021/04/07 05:51:15;;;;;;;19.27;12.18;;;153.70;1971.20;;;;;;5080265;28;20038;-61
2021/04/07 05:53:41;;;;;;;14.70;10.80;;;153.60;1996.80;;;;;;5078029;28;20020;-60
2021/04/07 05:56:06;;;;;;;23.60;14.43;;;153.80;1971.20;;;;;;5074615;28;20020;-59
2021/04/07 05:58:32;;;;;;;17.02;10.40;;;153.70;1971.20;;;;;;5075432;28;20594;-62
2021/04/07 06:00:58;;;;;;;14.80;8.18;;;153.70;1971.20;;;;;;5074005;28;20036;-59
2021/04/07 06:03:23;;;;;;;12.23;7.40;;;153.80;1971.20;;;;;;5079210;28;20469;-60
2021/04/07 06:05:50;;;;;;;12.35;8.93;;;154.00;1945.60;;;;;;5072554;28;20044;-69
2021/04/07 06:08:18;;;;;;;12.55;7.78;;;154.40;1920.00;;;;;;5078478;28;20033;-68
2021/04/07 06:10:47;;;;;;;9.90;7.18;;;154.50;1894.40;;;;;;5077233;28;20031;-64
2021/04/07 06:13:15;;;;;;;12.70;7.60;;;179.20;1868.80;;;;;;5078016;28;20424;-64
2021/04/07 06:15:42;;;;;;;9.13;6.47;;;154.50;1868.80;;;;;;5076067;28;20058;-65
2021/04/07 06:18:08;;;;;;;13.65;9.15;;;154.30;1868.80;;;;;;5077642;28;20016;-65
2021/04/07 06:20:43;;;;;;;39.70;23.73;;;154.30;1894.40;;;;;;5077807;28;20016;-65
2021/04/07 06:23:10;;;;;;;12.73;9.85;;;154.50;1894.40;;;;;;5076380;28;20069;-68
2021/04/07 06:25:37;;;;;;;10.38;8.18;;;179.30;1868.80;;;;;;5078199;28;20020;-64
2021/04/07 06:28:06;;;;;;;17.58;10.48;;;179.30;1868.80;;;;;;5078377;28;20539;-65
2021/04/07 06:33:12;;;;;;;74.80;57.95;;;179.70;1792.00;;;;;;5077360;28;20467;-65
2021/04/07 06:35:38;;;;;;;14.52;10.50;;;180.10;1766.40;;;;;;5077701;28;20020;-63
2021/04/07 06:38:04;;;;;;;12.35;7.78;;;204.90;1766.40;;;;;;5077457;28;20103;-67
2021/04/07 06:40:31;;;;;;;13.88;10.27;;;204.80;1766.40;;;;;;5076684;28;20159;-67
2021/04/07 06:42:59;;;;;;;15.18;9.38;;;205.00;1740.80;;;;;;5081061;28;20055;-66
2021/04/07 06:45:26;;;;;;;10.52;7.32;;;205.50;1689.60;;;;;;5089877;28;20071;-66
2021/04/07 06:47:53;;;;;;;13.40;8.50;;;205.70;1664.00;;;;;;5088762;28;20036;-66
2021/04/07 06:50:21;;;;;;;26.30;21.27;;;230.40;1638.40;;;;;;5090103;28;20024;-66
2021/04/07 06:52:47;;;;;;;24.35;17.17;;;230.60;1612.80;;;;;;5089962;28;20036;-65
2021/04/07 06:55:16;;;;;;;13.43;9.82;;;231.10;1561.60;;;;;;5054268;28;20067;-66
2021/04/07 06:57:43;;;;;;;31.17;19.00;;;256.00;1510.40;;;;;;5050026;28;20029;-67
2021/04/07 07:00:10;;;;;;;50.88;29.08;;;231.20;1536.00;;;;;;5049846;28;20390;-67
2021/04/07 07:02:36;;;;;;;76.88;41.80;;;231.30;1536.00;;;;;;5049696;28;20100;-66
2021/04/07 07:05:03;;;;;;;25.73;15.23;;;256.70;1433.60;;;;;;5049692;28;20145;-66
2021/04/07 07:07:30;;;;;;;33.40;21.45;;;256.50;1459.20;;;;;;5049503;28;20098;-68
2021/04/07 07:09:56;;;;;;;31.13;21.48;;;256.70;1459.20;;;;;;5049417;28;20031;-69
2021/04/07 07:12:22;;;;;;;13.25;9.05;;;256.20;1459.20;;;;;;5049823;28;20083;-66
2021/04/07 07:14:49;;;;;;;16.23;10.80;;;256.20;1484.80;;;;;;5049673;28;20029;-66
2021/04/07 07:17:26;;;;;;;117.70;68.07;;;231.30;1510.40;;;;;;5051390;28;20021;-65
2021/04/07 07:19:52;;;;;;;22.83;14.38;;;256.30;1484.80;;;;;;5071051;28;20046;-66
2021/04/07 07:22:23;;;;;;;14.85;9.73;;;256.30;1484.80;;;;;;5077321;28;20028;-67
2021/04/07 07:24:57;;;;;;;24.80;14.48;;;256.20;1459.20;;;;;;5077298;28;20124;-66
2021/04/07 07:27:40;;;;;;;16.48;9.73;;;256.30;1459.20;;;;;;5076392;28;20482;-66
2021/04/07 07:30:12;;;;;;;15.60;10.05;;;256.00;1459.20;;;;;;5076894;28;20020;-67
2021/04/07 07:32:40;;;;;;;15.80;9.10;;;256.00;1459.20;;;;;;5075174;28;20032;-66
2021/04/07 07:35:08;;;;;;;18.88;13.40;;;231.30;1484.80;;;;;;5078024;28;20024;-67
2021/04/07 07:37:34;;;;;;;16.38;10.32;;;256.50;1433.60;;;;;;5079229;28;20020;-66
2021/04/07 07:40:00;;;;;;;10.82;7.82;;;256.60;1433.60;;;;;;5068375;28;20028;-66
2021/04/07 07:42:28;;;;;;;13.73;8.90;;;231.20;1484.80;;;;;;5069056;28;20017;-66
2021/04/07 07:44:54;;;;;;;71.50;43.85;;;231.20;1459.20;;;;;;5069215;28;20052;-67
2021/04/07 07:47:33;;;;;;;14.20;9.60;;;231.10;1484.80;;;;;;5069464;28;20021;-66
2021/04/07 07:50:01;;;;;;;34.28;20.75;;;231.00;1484.80;;;;;;5076373;28;20028;-66
2021/04/07 07:52:32;;;;;;;10.75;7.88;;;230.70;1510.40;;;;;;5077730;28;20028;-65
2021/04/07 07:54:59;;;;;;;15.90;11.10;;;230.70;1510.40;;;;;;5075057;28;20115;-66
2021/04/07 07:57:25;;;;;;;60.80;39.85;;;205.70;1561.60;;;;;;5072895;28;20048;-66
2021/04/07 07:59:57;;;;;;;27.48;15.90;;;205.30;1587.20;;;;;;5072908;28;20017;-66
2021/04/07 08:02:28;;;;;;;23.20;13.57;;;205.50;1561.60;;;;;;5070831;28;20516;-64
2021/04/07 08:04:54;;;;;;;57.65;29.02;;;205.70;1536.00;;;;;;5074059;28;20174;-65
2021/04/07 08:07:20;;;;;;;25.75;14.25;;;230.80;1510.40;;;;;;5080643;28;20095;-68
2021/04/07 08:09:46;;;;;;;26.73;14.77;;;231.00;1484.80;;;;;;5077532;28;20099;-66
2021/04/07 08:12:14;;;;;;;21.80;13.82;;;256.10;1433.60;;;;;;5081756;28;20496;-66
2021/04/07 08:14:40;;;;;;;13.02;8.07;;;256.10;1408.00;;;;;;5082337;28;20040;-66
2021/04/07 08:17:07;;;;;;;32.33;18.17;;;256.40;1408.00;;;;;;5077594;28;20450;-66
2021/04/07 08:19:35;;;;;;;15.10;11.55;;;281.70;1382.40;;;;;;5081571;28;20023;-65
2021/04/07 08:22:04;;;;;;;14.48;11.82;;;282.00;1331.20;;;;;;5076825;28;20093;-67
2021/04/07 08:24:31;;;;;;;121.68;65.90;;;282.30;1280.00;;;;;;5079446;28;20469;-65
2021/04/07 08:26:57;;;;;;;10.15;8.15;;;307.40;1254.40;;;;;;5082323;28;20416;-66
2021/04/07 08:29:24;;;;;;;24.13;12.10;;;282.50;1254.40;;;;;;5080845;28;20021;-65
2021/04/07 08:31:51;;;;;;;383.50;209.30;;;307.60;1254.40;;;;;;5081137;28;20032;-65
2021/04/07 08:34:18;;;;;;;15.77;11.00;;;307.80;1203.20;;;;;;5081911;28;20047;-67
2021/04/07 08:36:45;;;;;;;12.07;7.57;;;308.10;1203.20;;;;;;5080590;28;20036;-67
2021/04/07 08:39:16;;;;;;;10.65;8.63;;;333.20;1177.60;;;;;;5080704;28;20588;-68
2021/04/07 08:41:44;;;;;;;10.70;7.20;;;333.20;1177.60;;;;;;5084959;28;20405;-64
2021/04/07 08:44:11;;;;;;;30.63;16.48;;;333.40;1126.40;;;;;;5087173;28;20089;-65
2021/04/07 08:46:47;;;;;;;121.60;75.18;;;333.10;1126.40;;;;;;5088586;28;20051;-68
2021/04/07 08:49:39;;;;;;;17.15;10.35;;;333.20;1152.00;;;;;;5076413;28;20052;-65
2021/04/07 08:52:18;;;;;;;28.67;19.48;;;333.50;1126.40;;;;;;5070381;28;20021;-67
2021/04/07 08:54:52;;;;;;;47.80;31.13;;;333.40;1152.00;;;;;;5070204;28;20036;-65
2021/04/07 08:57:34;;;;;;;26.98;17.52;;;333.40;1152.00;;;;;;5085592;28;20020;-66
2021/04/07 09:00:08;;;;;;;15.52;11.25;;;332.80;1203.20;;;;;;5088073;28;20081;-66
2021/04/07 09:03:06;;;;;;;14.15;9.50;;;307.20;1228.80;;;;;;5088766;28;20054;-66
2021/04/07 09:05:42;;;;;;;22.75;19.25;;;282.10;1254.40;;;;;;5006242;28;20098;-68
2021/04/07 09:08:11;;;;;;;14.60;10.27;;;282.00;1254.40;;;;;;4989251;28;20502;-67
2021/04/07 09:10:41;;;;;;;18.33;14.23;;;256.90;1254.40;;;;;;5005970;28;20645;-66
2021/04/07 09:13:09;;;;;;;64.97;58.03;;;281.70;1254.40;;;;;;5006008;28;20116;-69
2021/04/07 09:15:46;;;;;;;16.27;9.82;;;256.40;1280.00;;;;;;5006062;28;20049;-66
2021/04/07 09:18:14;;;;;;;34.83;25.65;;;281.80;1305.60;;;;;;5006300;28;20022;-65
2021/04/07 09:20:51;;;;;;;33.53;21.35;;;282.30;1228.80;;;;;;5005829;28;20084;-66
2021/04/07 09:23:30;;;;;;;13.65;8.68;;;307.40;1254.40;;;;;;5005770;28;20036;-66
2021/04/07 09:26:10;;;;;;;13.00;9.45;;;307.40;1254.40;;;;;;5005868;28;20483;-68
2021/04/07 09:28:42;;;;;;;22.88;15.18;;;282.40;1228.80;;;;;;5005909;28;20034;-67
2021/04/07 09:31:10;;;;;;;64.43;36.40;;;282.40;1228.80;;;;;;5006239;28;20026;-67
2021/04/07 09:33:39;;;;;;;12.48;8.52;;;307.20;1254.40;;;;;;5006114;28;20044;-68
2021/04/07 09:36:06;;;;;;;17.58;11.38;;;282.20;1254.40;;;;;;5006360;28;20084;-64
2021/04/07 09:38:34;;;;;;;64.38;47.60;;;307.30;1254.40;;;;;;5006639;28;20110;-67
2021/04/07 09:41:12;;;;;;;28.75;19.15;;;307.20;1228.80;;;;;;5006264;28;20497;-65
2021/04/07 09:43:40;;;;;;;21.00;14.75;;;282.50;1228.80;;;;;;5077622;28;20032;-68
2021/04/07 09:46:06;;;;;;;20.85;10.90;;;307.20;1254.40;;;;;;5088831;28;20334;-67
2021/04/07 09:48:39;;;;;;;16.13;11.23;;;282.30;1228.80;;;;;;5088461;28;20923;-66
2021/04/07 09:51:30;;;;;;;11.90;8.18;;;282.00;1254.40;;;;;;5088685;28;20095;-65
2021/04/07 09:54:17;;;;;;;32.75;21.35;;;282.30;1254.40;;;;;;5088339;28;20054;-68
2021/04/07 09:56:48;;;;;;;20.10;12.82;;;282.50;1254.40;;;;;;5088483;28;20043;-66
2021/04/07 09:59:14;;;;;;;20.45;14.27;;;282.40;1228.80;;;;;;5083227;28;20028;-67
2021/04/07 10:01:40;;;;;;;11.45;8.15;;;282.20;1254.40;;;;;;5090043;28;20038;-70
2021/04/07 10:04:07;;;;;;;17.95;14.35;;;282.00;1280.00;;;;;;5090840;28;20161;-68
2021/04/07 10:06:32;;;;;;;18.38;11.10;;;282.10;1254.40;;;;;;5087921;28;20043;-68
2021/04/07 10:09:09;;;;;;;19.35;12.57;;;281.90;1305.60;;;;;;5090728;28;20047;-68
2021/04/07 10:11:38;;;;;;;17.95;12.68;;;281.90;1305.60;;;;;;5090981;28;20031;-67
2021/04/07 10:14:06;;;;;;;18.42;12.50;;;256.40;1305.60;;;;;;5090699;28;20039;-69
2021/04/07 10:16:37;;;;;;;18.23;13.32;;;256.00;1356.80;;;;;;5077206;28;20063;-70
2021/04/07 10:19:10;;;;;;;19.63;10.85;;;231.30;1382.40;;;;;;5058378;28;20032;-67
2021/04/07 10:21:37;;;;;;;14.10;9.48;;;231.30;1331.20;;;;;;5058935;28;20021;-71
2021/04/07 10:24:04;;;;;;;14.68;10.50;;;256.10;1331.20;;;;;;5058478;28;20050;-68
2021/04/07 10:26:41;;;;;;;12.98;9.63;;;256.10;1331.20;;;;;;5060085;28;20030;-67
2021/04/07 10:29:07;;;;;;;14.88;10.50;;;231.10;1305.60;;;;;;5060568;28;20021;-68
2021/04/07 10:31:32;;;;;;;12.65;7.50;;;256.60;1280.00;;;;;;5067797;28;20429;-67
2021/04/07 10:34:16;;;;;;;16.90;10.52;;;256.00;1331.20;;;;;;5070177;28;20021;-68
2021/04/07 10:36:42;;;;;;;;;;;231.00;1331.20;;;;;;5071301;28;20402;-69
2021/04/07 10:39:16;;;;;;;10.18;8.20;;;231.10;1331.20;;;;;;5070359;28;19927;-66
2021/04/07 10:41:47;;;;;;;26.25;14.95;;;231.30;1356.80;;;;;;5070263;28;20034;-67
2021/04/07 10:44:27;;;;;;;13.07;8.32;;;256.00;1331.20;;;;;;5069929;28;20091;-67
2021/04/07 10:46:53;;;;;;;13.45;9.80;;;231.00;1356.80;;;;;;5070229;28;20126;-67
2021/04/07 10:49:21;;;;;;;19.15;12.90;;;231.10;1356.80;;;;;;5069982;28;20024;-67
2021/04/07 10:52:03;;;;;;;16.35;8.35;;;231.20;1305.60;;;;;;5069781;28;20471;-67
2021/04/07 10:54:30;;;;;;;18.92;14.93;;;231.10;1331.20;;;;;;5069889;28;20412;-67
2021/04/07 10:57:03;;;;;;;18.13;13.63;;;231.00;1305.60;;;;;;5069180;28;20036;-66
2021/04/07 10:59:30;;;;;;;10.75;7.95;;;256.00;1305.60;;;;;;5069719;28;20024;-68
2021/04/07 11:01:56;;;;;;;19.48;12.75;;;231.20;1280.00;;;;;;5051530;28;20044;-68
2021/04/07 11:04:22;;;;;;;10.88;6.80;;;256.00;1254.40;;;;;;5050188;28;20033;-67
2021/04/07 11:06:56;;;;;;;18.48;11.18;;;256.10;1305.60;;;;;;5049679;28;20374;-69
2021/04/07 11:09:26;;;;;;;16.60;9.27;;;256.00;1280.00;;;;;;5049902;28;20028;-66
2021/04/07 11:11:54;;;;;;;23.65;15.05;;;256.30;1254.40;;;;;;5049963;28;20025;-67
2021/04/07 11:14:20;;;;;;;16.02;10.90;;;256.00;1280.00;;;;;;5049438;28;20041;-67
2021/04/07 11:16:58;;;;;;;41.30;25.38;;;231.30;1331.20;;;;;;5052119;28;20037;-67
2021/04/07 11:19:36;;;;;;;22.30;11.00;;;231.30;1331.20;;;;;;5049462;28;20075;-67
2021/04/07 11:22:03;;;;;;;12.68;8.77;;;231.20;1228.80;;;;;;5049611;28;20562;-67
2021/04/07 11:24:28;;;;;;;26.77;16.13;;;256.30;1177.60;;;;;;5051091;28;20025;-68
2021/04/07 11:26:55;;;;;;;11.95;7.22;;;256.10;1228.80;;;;;;5070584;28;20021;-66
2021/04/07 11:29:21;;;;;;;16.13;10.15;;;256.00;1152.00;;;;;;5073628;28;20029;-66
2021/04/07 11:31:53;;;;;;;14.32;10.85;;;256.20;1177.60;;;;;;5060460;28;20167;-67
2021/04/07 11:34:28;;;;;;;16.38;12.02;;;231.20;1152.00;;;;;;5053121;28;20021;-67
2021/04/07 11:39:35;;;;;;;20.98;14.68;;;231.00;1177.60;;;;;;5073086;28;20381;-66
2021/04/07 11:44:45;;;;;;;8.40;6.82;;;256.30;1203.20;;;;;;5072527;28;20049;-65
2021/04/07 11:47:11;;;;;;;13.25;10.25;;;256.50;1177.60;;;;;;5073515;28;20429;-67
2021/04/07 11:49:37;;;;;;;12.73;9.73;;;256.80;1203.20;;;;;;5073059;28;20378;-67
2021/04/07 11:52:04;;;;;;;16.95;11.95;;;281.60;1254.40;;;;;;5073059;28;20028;-65
2021/04/07 11:54:30;;;;;;;22.23;14.65;;;256.90;1177.60;;;;;;5072786;28;20028;-67
2021/04/07 11:56:57;;;;;;;13.27;8.63;;;281.80;1177.60;;;;;;5072773;28;20063;-68
2021/04/07 11:59:24;;;;;;;17.13;9.15;;;256.90;1126.40;;;;;;5073221;28;20024;-65
2021/04/07 12:01:52;;;;;;;28.27;18.00;;;256.90;1126.40;;;;;;5072786;28;20021;-63
2021/04/07 12:04:18;;;;;;;16.67;11.00;;;256.70;1177.60;;;;;;5072807;28;20478;-64
2021/04/07 12:06:45;;;;;;;26.77;17.27;;;256.70;1126.40;;;;;;5072942;28;20103;-63
2021/04/07 12:09:10;;;;;;;18.67;11.57;;;256.60;1126.40;;;;;;5072720;28;20124;-63
2021/04/07 12:11:37;;;;;;;22.50;15.20;;;281.60;1203.20;;;;;;5072694;28;20443;-64
2021/04/07 12:14:04;;;;;;;8.95;6.57;;;281.60;1126.40;;;;;;5072532;28;20060;-63
2021/04/07 12:16:30;;;;;;;7.75;5.22;;;256.70;1049.60;;;;;;5072768;28;20039;-64
2021/04/07 12:18:57;;;;;;;7.80;5.78;;;256.60;1049.60;;;;;;5072454;28;20028;-65
2021/04/07 12:21:23;;;;;;;10.18;4.93;;;256.60;1075.20;;;;;;5072637;28;20024;-64